Time;durP1;ratioP1;P1;durP2;ratioP2;P2;SDS_P1;SDS_P2;PMS_P1;PMS_P2;Temp;Humidity;BMP_temperature;BMP_pressure;BME280_temperature;BME280_humidity;BME280_pressure;Samples;Min_cycle;Max_cycle;Signal;HPM_P1;HPM_P2
2022/01/06 00:01:33;;;;;;;1.08;0.60;;;;;;;3.09;66.08;99568.00;4419296;32;20139;-71
2022/01/06 00:04:01;;;;;;;6.37;0.65;;;;;;;3.00;67.17;99580.09;4419393;32;20135;-71
2022/01/06 00:06:29;;;;;;;4.55;1.15;;;;;;;3.00;67.01;99582.69;4419658;32;20112;-71
2022/01/06 00:08:59;;;;;;;2.33;0.93;;;;;;;2.90;66.35;99597.41;4420038;31;20093;-71
2022/01/06 00:11:26;;;;;;;2.12;0.93;;;;;;;2.91;67.18;99603.47;4421674;32;20089;-71
2022/01/06 00:14:00;;;;;;;1.12;0.85;;;;;;;2.94;68.29;99603.50;4422027;31;20490;-71
2022/01/06 00:16:40;;;;;;;4.35;0.82;;;;;;;2.96;68.34;99601.75;4421763;32;20150;-71
2022/01/06 00:24:28;;;;;;;6.60;1.12;;;;;;;2.98;68.13;99615.66;4421770;31;20488;-71
2022/01/06 00:26:56;;;;;;;1.10;0.85;;;;;;;2.90;67.46;99607.81;4421814;32;20077;-71
2022/01/06 00:29:24;;;;;;;3.00;1.25;;;;;;;2.86;68.19;99609.53;4421734;31;20124;-71
2022/01/06 00:31:52;;;;;;;2.62;1.23;;;;;;;3.04;68.86;99602.66;4421857;31;20168;-71
2022/01/06 00:34:19;;;;;;;4.50;1.37;;;;;;;2.92;66.20;99605.22;4421546;32;20140;-71
2022/01/06 00:36:46;;;;;;;2.03;1.20;;;;;;;2.92;70.23;99602.59;4421669;31;20132;-71
2022/01/06 00:39:13;;;;;;;3.17;1.23;;;;;;;2.90;68.75;99583.50;4407441;32;20119;-71
2022/01/06 00:41:41;;;;;;;3.17;1.08;;;;;;;3.24;67.18;99580.22;4421354;32;20123;-71
2022/01/06 00:44:08;;;;;;;3.42;0.95;;;;;;;2.99;67.96;99580.97;4421772;31;20106;-71
2022/01/06 00:46:35;;;;;;;6.45;1.23;;;;;;;2.96;69.53;99566.19;4421612;32;20109;-71
2022/01/06 00:49:04;;;;;;;3.83;1.00;;;;;;;2.96;68.34;99547.12;4421584;32;20085;-71
2022/01/06 00:51:31;;;;;;;2.30;1.00;;;;;;;3.16;69.94;99536.81;4421443;32;20140;-71
2022/01/06 00:53:58;;;;;;;3.70;1.17;;;;;;;3.05;69.72;99537.63;4421528;31;20120;-71
2022/01/06 00:56:26;;;;;;;1.95;1.23;;;;;;;2.91;69.65;99531.50;4421511;32;20090;-71
2022/01/06 00:58:53;;;;;;;4.15;0.90;;;;;;;2.96;71.29;99534.97;4421406;31;20113;-71
2022/01/06 01:01:20;;;;;;;2.65;1.30;;;;;;;2.97;70.71;99535.84;4421314;32;20110;-71
2022/01/06 01:03:47;;;;;;;2.83;0.90;;;;;;;2.76;68.95;99529.69;4421306;32;20468;-71
2022/01/06 01:06:15;;;;;;;2.10;1.02;;;;;;;3.00;70.25;99520.25;4421587;32;20090;-71
2022/01/06 01:08:42;;;;;;;5.07;1.42;;;;;;;2.91;71.09;99513.28;4421569;31;20093;-71
2022/01/06 01:11:09;;;;;;;1.58;0.98;;;;;;;2.96;69.58;99521.97;4421399;32;20233;-71
2022/01/06 01:13:56;;;;;;;1.27;0.88;;;;;;;3.13;68.44;99524.66;4421417;32;20457;-71
2022/01/06 01:16:29;;;;;;;0.82;0.77;;;;;;;2.95;71.33;99525.44;4421281;32;20086;-71
2022/01/06 01:18:58;;;;;;;4.28;1.37;;;;;;;2.92;70.45;99540.16;4421331;32;20081;-71
2022/01/06 01:21:27;;;;;;;1.12;1.05;;;;;;;2.92;69.25;99538.44;4420420;32;20521;-71
2022/01/06 01:23:59;;;;;;;1.65;1.20;;;;;;;2.91;69.78;99528.03;4421315;32;20499;-71
2022/01/06 01:26:26;;;;;;;2.15;1.10;;;;;;;2.98;68.11;99538.47;4421457;32;20338;-71
2022/01/06 01:28:54;;;;;;;2.15;0.95;;;;;;;2.96;70.63;99557.53;4421377;31;20573;-71
2022/01/06 01:33:51;;;;;;;2.53;1.05;;;;;;;2.98;70.30;99566.22;4421082;32;20168;-71
2022/01/06 01:36:19;;;;;;;3.53;1.30;;;;;;;3.06;68.80;99564.53;4421185;31;20090;-71
2022/01/06 01:38:46;;;;;;;4.85;0.80;;;;;;;2.94;68.38;99569.69;4421235;31;20094;-71
2022/01/06 01:41:14;;;;;;;2.90;1.00;;;;;;;2.84;70.17;99573.94;4420982;32;20139;-71
2022/01/06 01:43:41;;;;;;;4.37;1.15;;;;;;;3.02;69.06;99562.78;4421240;31;20760;-71
2022/01/06 01:46:13;;;;;;;3.30;0.88;;;;;;;2.92;69.20;99548.84;4421181;32;20149;-71
2022/01/06 01:48:47;;;;;;;2.15;0.90;;;;;;;2.95;69.40;99545.38;4421197;32;20141;-71
2022/01/06 01:51:14;;;;;;;3.10;0.77;;;;;;;2.90;69.09;99542.78;4421201;31;20131;-71
2022/01/06 01:53:42;;;;;;;4.15;1.20;;;;;;;2.78;71.77;99548.75;4420955;32;20142;-71
2022/01/06 01:56:11;;;;;;;3.12;1.10;;;;;;;2.88;71.05;99527.13;4421106;31;20418;-71
2022/01/06 01:58:40;;;;;;;5.00;1.10;;;;;;;2.91;69.90;99528.03;4420842;31;20098;-71
2022/01/06 02:01:08;;;;;;;3.67;0.90;;;;;;;2.99;70.15;99540.19;4420752;32;20115;-71
2022/01/06 02:03:36;;;;;;;4.25;1.30;;;;;;;3.11;68.78;99548.09;4420839;31;20568;-71
2022/01/06 02:06:03;;;;;;;3.28;1.00;;;;;;;2.90;70.47;99552.28;4420777;31;20104;-71
2022/01/06 02:08:31;;;;;;;1.98;1.00;;;;;;;2.97;69.91;99552.34;4421075;31;20384;-71
2022/01/06 02:10:59;;;;;;;1.67;0.93;;;;;;;2.82;69.74;99566.13;4420646;32;20140;-71
2022/01/06 02:13:29;;;;;;;4.10;1.30;;;;;;;2.74;70.47;99574.75;4420789;31;20511;-71
2022/01/06 02:16:01;;;;;;;4.62;1.08;;;;;;;2.83;70.35;99580.88;4420857;31;20081;-70
2022/01/06 02:18:29;;;;;;;4.62;1.15;;;;;;;2.98;69.46;99592.25;4420676;32;20425;-71
2022/01/06 02:20:56;;;;;;;3.70;1.30;;;;;;;2.85;70.49;99592.16;4420511;32;20546;-71
2022/01/06 02:23:24;;;;;;;2.40;0.80;;;;;;;2.80;69.98;99580.00;4420809;32;20101;-71
2022/01/06 02:25:52;;;;;;;2.67;1.20;;;;;;;2.76;70.29;99573.91;4420536;32;20192;-69
2022/01/06 02:28:22;;;;;;;3.15;1.00;;;;;;;2.73;71.48;99557.41;4420592;31;20118;-70
2022/01/06 02:30:51;;;;;;;3.62;0.98;;;;;;;2.67;72.24;99547.81;4420588;31;20545;-70
2022/01/06 02:33:19;;;;;;;4.93;0.90;;;;;;;2.81;71.67;99529.69;4420144;32;20109;-70
2022/01/06 02:35:48;;;;;;;5.00;1.30;;;;;;;2.75;71.25;99533.12;4420696;31;20086;-70
2022/01/06 02:38:16;;;;;;;2.65;1.00;;;;;;;2.83;70.56;99526.25;4420502;31;20748;-70
2022/01/06 02:40:45;;;;;;;3.78;1.08;;;;;;;2.98;70.76;99529.78;4420242;32;20097;-70
2022/01/06 02:43:15;;;;;;;2.60;0.95;;;;;;;2.80;72.18;99520.16;4420465;31;20140;-70
2022/01/06 02:45:44;;;;;;;1.52;0.80;;;;;;;2.87;71.20;99522.81;4420369;32;20386;-70
2022/01/06 02:48:14;;;;;;;2.42;1.00;;;;;;;2.88;71.21;99532.34;4420319;32;20128;-70
2022/01/06 02:50:43;;;;;;;6.45;1.37;;;;;;;2.80;71.22;99557.44;4420217;31;20155;-70
2022/01/06 02:53:12;;;;;;;4.20;1.12;;;;;;;2.83;72.57;99565.28;4420360;32;20144;-70
2022/01/06 02:55:47;;;;;;;2.70;1.10;;;;;;;2.82;71.59;99575.66;4420234;31;20460;-70
2022/01/06 02:58:34;;;;;;;1.98;1.08;;;;;;;2.72;71.83;99579.06;4420361;32;20169;-70
2022/01/06 03:01:01;;;;;;;1.50;1.40;;;;;;;2.80;71.56;99598.22;4420123;31;20097;-70
2022/01/06 03:03:29;;;;;;;3.50;1.37;;;;;;;2.69;72.04;99603.34;4420236;32;20093;-70
2022/01/06 03:05:56;;;;;;;1.27;0.75;;;;;;;2.60;71.80;99613.66;4420145;32;20179;-70
2022/01/06 03:08:25;;;;;;;0.80;0.80;;;;;;;2.75;70.92;99610.28;4420100;32;20089;-70
2022/01/06 03:10:54;;;;;;;3.00;1.02;;;;;;;2.87;70.59;99610.41;4420109;32;20096;-70
2022/01/06 03:13:21;;;;;;;2.55;0.80;;;;;;;2.82;70.67;99615.53;4420115;32;20114;-70
2022/01/06 03:15:48;;;;;;;1.50;1.10;;;;;;;2.76;70.83;99612.06;4420019;32;20069;-70
2022/01/06 03:18:15;;;;;;;3.12;1.23;;;;;;;2.85;70.81;99609.50;4419997;32;20164;-70
2022/01/06 03:20:43;;;;;;;2.50;1.10;;;;;;;2.81;70.43;99605.13;4419866;32;20121;-70
2022/01/06 03:23:10;;;;;;;3.03;1.08;;;;;;;2.70;71.15;99612.00;4419859;32;20157;-70
2022/01/06 03:25:37;;;;;;;2.37;1.30;;;;;;;2.66;71.66;99610.25;4419907;31;20116;-70
2022/01/06 03:28:04;;;;;;;1.37;1.08;;;;;;;2.82;71.07;99610.34;4419962;32;20117;-70
2022/01/06 03:30:31;;;;;;;1.50;1.10;;;;;;;2.67;72.20;99615.44;4419801;32;20093;-70
2022/01/06 03:32:59;;;;;;;3.20;1.02;;;;;;;2.69;72.87;99605.06;4419749;32;20585;-70
2022/01/06 03:35:26;;;;;;;3.30;1.27;;;;;;;2.81;70.59;99608.62;4419823;32;20534;-70
2022/01/06 03:37:54;;;;;;;1.45;1.05;;;;;;;2.67;72.62;99605.03;4419841;31;20085;-70
2022/01/06 03:40:21;;;;;;;3.72;1.23;;;;;;;2.77;70.57;99617.25;4419721;31;20548;-70
2022/01/06 03:42:49;;;;;;;2.47;0.88;;;;;;;2.82;71.12;99617.28;4419537;32;20143;-70
2022/01/06 03:45:18;;;;;;;3.97;1.23;;;;;;;2.69;72.55;99618.94;4421596;31;20082;-70
2022/01/06 03:47:46;;;;;;;1.80;0.88;;;;;;;2.61;72.83;99625.78;4422008;31;20444;-70
2022/01/06 03:50:15;;;;;;;3.90;1.00;;;;;;;2.74;70.77;99624.16;4422008;32;20097;-70
2022/01/06 03:52:43;;;;;;;1.60;1.00;;;;;;;2.72;70.65;99626.78;4422092;31;20096;-70
2022/01/06 03:55:14;;;;;;;1.35;0.98;;;;;;;2.84;70.87;99625.97;4421939;32;20123;-70
2022/01/06 03:57:42;;;;;;;1.85;1.12;;;;;;;2.63;72.26;99624.09;4421859;32;20441;-70
2022/01/06 04:00:12;;;;;;;3.47;1.00;;;;;;;2.60;71.30;99637.06;4422001;32;20098;-70
2022/01/06 04:02:41;;;;;;;3.03;0.90;;;;;;;2.63;72.21;99634.50;4421795;32;20101;-70
2022/01/06 04:05:09;;;;;;;4.45;0.80;;;;;;;2.86;70.94;99627.75;4422217;32;20440;-70
2022/01/06 04:07:38;;;;;;;1.10;0.93;;;;;;;2.61;72.52;99623.19;4421789;31;20102;-70
2022/01/06 04:10:07;;;;;;;3.95;1.10;;;;;;;2.72;70.93;99612.87;4421736;32;20121;-70
2022/01/06 04:12:36;;;;;;;2.47;0.95;;;;;;;2.52;72.28;99620.53;4421865;31;20438;-70
2022/01/06 04:15:09;;;;;;;1.27;1.10;;;;;;;2.46;73.37;99610.94;4421797;31;20485;-70
2022/01/06 04:17:37;;;;;;;4.93;0.98;;;;;;;2.54;71.46;99619.66;4421673;32;20168;-70
2022/01/06 04:20:07;;;;;;;4.05;1.17;;;;;;;2.62;71.62;99625.81;4421789;32;20097;-70
2022/01/06 04:22:35;;;;;;;1.33;0.55;;;;;;;2.69;72.04;99631.94;4407714;32;20472;-70
2022/01/06 04:25:04;;;;;;;3.33;1.30;;;;;;;2.59;72.42;99635.31;4421859;31;20418;-70
2022/01/06 04:27:31;;;;;;;4.82;1.17;;;;;;;2.56;72.96;99636.16;4421750;31;20544;-70
2022/01/06 04:29:58;;;;;;;4.78;0.98;;;;;;;2.56;71.54;99651.78;4424141;31;20822;-70
2022/01/06 04:32:26;;;;;;;2.70;1.12;;;;;;;2.51;72.85;99660.38;4422780;32;20109;-70
2022/01/06 04:34:53;;;;;;;2.97;1.10;;;;;;;2.48;73.79;99658.66;4421955;32;20085;-70
2022/01/06 04:37:20;;;;;;;1.70;0.90;;;;;;;2.55;72.20;99659.56;4422611;32;20120;-70
2022/01/06 04:39:47;;;;;;;2.67;1.27;;;;;;;2.57;72.58;99663.03;4422651;32;20097;-70
2022/01/06 04:42:14;;;;;;;4.12;1.40;;;;;;;2.57;74.32;99671.72;4422299;32;20789;-70
2022/01/06 04:44:42;;;;;;;3.10;1.27;;;;;;;2.78;73.40;99671.03;4421914;32;20157;-70
2022/01/06 04:47:09;;;;;;;2.55;1.02;;;;;;;2.59;74.46;99672.59;4421838;32;20142;-70
2022/01/06 04:49:36;;;;;;;3.28;1.45;;;;;;;2.61;73.94;99676.09;4422179;32;20093;-70
2022/01/06 04:52:04;;;;;;;5.28;1.62;;;;;;;2.74;72.58;99676.19;4421443;32;20528;-70
2022/01/06 04:54:31;;;;;;;2.53;1.00;;;;;;;2.88;72.21;99683.25;4419312;32;20526;-70
2022/01/06 04:56:58;;;;;;;4.85;1.17;;;;;;;2.88;72.10;99685.84;4421410;32;20123;-71
2022/01/06 04:59:26;;;;;;;3.03;1.02;;;;;;;2.89;70.21;99686.72;4421860;32;20101;-70
2022/01/06 05:01:54;;;;;;;2.85;1.20;;;;;;;2.82;70.09;99683.19;4421059;32;20553;-70
2022/01/06 05:04:21;;;;;;;1.73;0.93;;;;;;;2.85;70.79;99696.22;4421423;32;20123;-70
2022/01/06 05:06:51;;;;;;;1.67;0.80;;;;;;;2.97;69.56;99700.69;4421296;32;20158;-70
2022/01/06 05:09:18;;;;;;;1.75;0.85;;;;;;;3.09;69.57;99703.34;4425103;32;20152;-70
2022/01/06 05:11:45;;;;;;;2.92;1.42;;;;;;;3.00;70.00;99698.06;4436988;31;20143;-70
2022/01/06 05:14:12;;;;;;;5.30;1.45;;;;;;;2.79;69.80;99704.00;4437262;31;20116;-70
2022/01/06 05:16:40;;;;;;;4.80;0.88;;;;;;;2.84;70.13;99704.03;4436085;31;20417;-70
2022/01/06 05:19:07;;;;;;;1.95;1.25;;;;;;;2.94;69.66;99702.38;4426919;32;20097;-70
2022/01/06 05:21:34;;;;;;;2.35;0.88;;;;;;;2.78;71.24;99699.62;4428840;31;20141;-70
2022/01/06 05:24:09;;;;;;;0.98;0.90;;;;;;;2.73;70.82;99703.94;4420719;32;20388;-70
2022/01/06 05:26:38;;;;;;;4.37;0.90;;;;;;;2.77;70.18;99703.09;4421053;32;20541;-70
2022/01/06 05:29:08;;;;;;;2.25;1.05;;;;;;;2.76;70.40;99703.97;4421033;32;20138;-70
2022/01/06 05:31:36;;;;;;;10.70;1.30;;;;;;;2.76;70.78;99711.78;4435857;32;20246;-70
2022/01/06 05:34:03;;;;;;;8.18;1.08;;;;;;;2.76;70.76;99716.12;4436345;32;20188;-70
2022/01/06 05:36:37;;;;;;;2.12;0.93;;;;;;;2.81;70.75;99710.06;4436382;32;20160;-70
2022/01/06 05:39:04;;;;;;;2.85;0.90;;;;;;;2.76;70.96;99713.50;4436176;32;20101;-70
2022/01/06 05:41:31;;;;;;;3.50;0.85;;;;;;;2.92;70.17;99719.69;4436359;32;20139;-70
2022/01/06 05:43:59;;;;;;;3.28;1.12;;;;;;;2.81;70.80;99722.22;4436176;32;20161;-69
2022/01/06 05:46:27;;;;;;;3.62;1.30;;;;;;;2.93;70.43;99716.22;4436043;31;20156;-69
2022/01/06 05:48:54;;;;;;;2.60;1.20;;;;;;;2.81;70.37;99711.81;4436240;32;20127;-70
2022/01/06 05:51:21;;;;;;;3.97;1.12;;;;;;;2.70;71.73;99716.91;4435086;32;20437;-70
2022/01/06 05:53:50;;;;;;;3.35;1.35;;;;;;;2.64;71.41;99716.84;4420356;32;20077;-70
2022/01/06 05:56:17;;;;;;;0.80;0.80;;;;;;;2.69;71.59;99716.91;4420975;32;20089;-70
2022/01/06 05:58:44;;;;;;;2.78;1.02;;;;;;;2.71;71.18;99712.59;4420714;32;20093;-70
2022/01/06 06:01:11;;;;;;;2.90;1.27;;;;;;;2.79;70.35;99717.00;4420387;32;20131;-70
2022/01/06 06:03:39;;;;;;;3.05;1.30;;;;;;;2.67;71.45;99716.88;4421417;31;20120;-69
2022/01/06 06:06:06;;;;;;;7.37;1.45;;;;;;;2.68;71.31;99716.00;4432712;32;20118;-70
2022/01/06 06:08:33;;;;;;;0.95;0.90;;;;;;;2.59;71.84;99721.16;4426431;32;20101;-70
2022/01/06 06:11:01;;;;;;;4.22;1.10;;;;;;;2.61;71.96;99711.63;4423400;32;20140;-70
2022/01/06 06:13:28;;;;;;;2.20;1.35;;;;;;;2.63;71.67;99723.78;4425799;32;20158;-70
2022/01/06 06:15:55;;;;;;;5.78;1.55;;;;;;;2.71;72.00;99731.66;4435353;32;20098;-69
2022/01/06 06:18:23;;;;;;;2.30;1.27;;;;;;;2.60;72.62;99722.88;4420424;32;20143;-69
2022/01/06 06:20:50;;;;;;;1.58;1.15;;;;;;;2.60;72.98;99725.50;4420361;32;20168;-69
2022/01/06 06:23:17;;;;;;;2.03;1.33;;;;;;;2.71;72.45;99723.00;4420159;32;20086;-70
2022/01/06 06:25:45;;;;;;;1.92;1.20;;;;;;;2.56;73.34;99719.37;4420357;32;20435;-70
2022/01/06 06:28:12;;;;;;;1.55;1.17;;;;;;;2.62;73.40;99721.19;4420132;32;20132;-70
2022/01/06 06:30:39;;;;;;;2.37;1.30;;;;;;;2.63;72.99;99725.53;4421416;32;20153;-72
2022/01/06 06:33:06;;;;;;;3.08;1.62;;;;;;;2.62;73.29;99734.19;4435200;32;20081;-72
2022/01/06 06:35:34;;;;;;;6.37;2.17;;;;;;;2.70;72.78;99740.31;4435648;32;20390;-70
2022/01/06 06:38:01;;;;;;;7.82;2.58;;;;;;;2.68;73.14;99742.03;4435431;31;20538;-70
2022/01/06 06:40:28;;;;;;;4.68;2.20;;;;;;;2.81;72.39;99746.50;4435759;32;20196;-70
2022/01/06 06:42:56;;;;;;;5.43;3.05;;;;;;;2.82;72.27;99745.62;4435523;32;20180;-70
2022/01/06 06:45:23;;;;;;;7.07;2.80;;;;;;;2.68;73.57;99743.75;4435302;32;20089;-70
2022/01/06 06:47:51;;;;;;;24.75;11.15;;;;;;;2.73;72.96;99744.69;4436069;32;20144;-70
2022/01/06 06:50:21;;;;;;;10.55;4.47;;;;;;;2.78;72.81;99740.41;4433296;32;20104;-69
2022/01/06 06:52:48;;;;;;;11.38;6.03;;;;;;;2.80;72.63;99739.56;4433546;32;20082;-69
2022/01/06 06:55:16;;;;;;;29.90;8.73;;;;;;;2.84;72.33;99737.84;4432800;32;20094;-70
2022/01/06 06:57:43;;;;;;;24.80;10.52;;;;;;;2.80;72.57;99734.34;4425289;31;20127;-69
2022/01/06 07:00:11;;;;;;;17.70;8.10;;;;;;;2.79;72.74;99749.94;4420987;32;20128;-69
2022/01/06 07:03:07;;;;;;;6.22;3.87;;;;;;;2.84;72.64;99759.53;4387383;32;20149;-70
2022/01/06 07:06:01;;;;;;;6.97;2.95;;;;;;;2.81;72.77;99756.91;4370099;32;20147;-69
2022/01/06 07:08:46;;;;;;;6.53;3.35;;;;;;;2.84;72.33;99764.75;4387415;32;20114;-69
2022/01/06 07:11:32;;;;;;;14.98;3.75;;;;;;;2.84;72.58;99780.34;4387532;32;20114;-69
2022/01/06 07:14:00;;;;;;;14.38;5.68;;;;;;;2.90;72.30;99781.25;4387480;32;20128;-71
2022/01/06 07:16:27;;;;;;;6.75;3.12;;;;;;;2.88;72.41;99782.13;4387170;32;20154;-71
2022/01/06 07:18:54;;;;;;;12.45;5.78;;;;;;;2.88;72.90;99789.94;4388015;32;20848;-70
2022/01/06 07:21:21;;;;;;;14.05;4.90;;;;;;;2.90;72.71;99794.25;4389589;32;20288;-70
2022/01/06 07:23:48;;;;;;;11.43;4.60;;;;;;;2.93;72.58;99799.50;4389317;32;20082;-71
2022/01/06 07:26:16;;;;;;;12.77;3.37;;;;;;;3.01;72.20;99803.06;4389806;32;20189;-70
2022/01/06 07:28:43;;;;;;;6.55;3.70;;;;;;;3.05;71.54;99810.03;4389548;32;20114;-71
2022/01/06 07:31:11;;;;;;;9.77;4.03;;;;;;;3.07;71.68;99817.03;4389516;32;20146;-72
2022/01/06 07:33:38;;;;;;;9.07;3.58;;;;;;;3.11;71.99;99813.59;4389619;32;20110;-71
2022/01/06 07:36:05;;;;;;;12.20;4.95;;;;;;;3.14;72.04;99824.84;4389684;32;20082;-71
2022/01/06 07:38:33;;;;;;;14.35;5.57;;;;;;;3.23;71.55;99818.00;4390063;32;20193;-71
2022/01/06 07:41:00;;;;;;;4.47;2.33;;;;;;;3.23;71.18;99818.00;4423071;32;20135;-70
2022/01/06 07:43:27;;;;;;;8.40;2.72;;;;;;;3.21;71.32;99832.72;4422807;32;20254;-71
2022/01/06 07:45:54;;;;;;;10.60;3.47;;;;;;;3.26;71.30;99833.66;4422547;32;20728;-70
2022/01/06 07:48:29;;;;;;;6.12;2.80;;;;;;;3.21;71.42;99842.28;4422632;32;20124;-72
2022/01/06 07:50:57;;;;;;;8.70;2.62;;;;;;;3.26;71.45;99853.63;4422861;32;20101;-70
2022/01/06 07:53:24;;;;;;;14.25;4.03;;;;;;;3.28;71.08;99867.50;4422639;31;20081;-70
2022/01/06 07:55:51;;;;;;;10.15;3.37;;;;;;;3.22;73.11;99872.69;4422776;32;20097;-70
2022/01/06 07:58:19;;;;;;;9.15;2.70;;;;;;;3.31;71.66;99883.16;4422799;32;20101;-70
2022/01/06 08:00:46;;;;;;;18.90;5.65;;;;;;;3.29;72.62;99884.91;4422631;32;20139;-70
2022/01/06 08:03:14;;;;;;;7.68;2.03;;;;;;;3.36;71.65;99884.09;4422632;31;20090;-71
2022/01/06 08:05:41;;;;;;;6.70;2.15;;;;;;;3.52;72.01;99892.91;4422790;32;20140;-71
2022/01/06 08:08:12;;;;;;;5.80;2.80;;;;;;;3.62;70.10;99902.53;4422255;32;20097;-70
2022/01/06 08:10:40;;;;;;;7.40;3.50;;;;;;;3.70;70.45;99906.09;4422457;32;20141;-70
2022/01/06 08:13:07;;;;;;;9.95;4.32;;;;;;;3.77;71.08;99902.66;4431468;32;20094;-70
2022/01/06 08:15:34;;;;;;;4.03;2.47;;;;;;;3.79;70.26;99910.50;4438010;31;20093;-71
2022/01/06 08:18:01;;;;;;;8.02;3.67;;;;;;;3.77;70.68;99913.09;4435349;31;20181;-72
2022/01/06 08:20:28;;;;;;;4.80;1.98;;;;;;;3.81;71.04;99924.41;4430396;32;20135;-72
2022/01/06 08:22:56;;;;;;;6.65;1.55;;;;;;;3.77;69.99;99920.91;4429372;32;20097;-71
2022/01/06 08:25:23;;;;;;;8.65;2.20;;;;;;;4.10;69.37;99932.47;4429296;31;20176;-71
2022/01/06 08:27:50;;;;;;;3.10;1.92;;;;;;;4.08;68.66;99931.56;4437631;32;20232;-71
2022/01/06 08:30:17;;;;;;;3.30;2.00;;;;;;;4.00;70.30;99944.56;4437237;32;20126;-71
2022/01/06 08:32:44;;;;;;;6.82;2.33;;;;;;;4.15;70.64;99945.53;4437672;31;20115;-70
2022/01/06 08:35:12;;;;;;;5.82;1.87;;;;;;;4.27;69.50;99951.69;4437311;32;20094;-71
2022/01/06 08:37:39;;;;;;;4.12;2.40;;;;;;;4.37;68.85;99946.53;4435960;32;20137;-71
2022/01/06 08:40:07;;;;;;;6.60;1.67;;;;;;;4.56;67.57;99964.06;4436138;32;20168;-71
2022/01/06 08:42:34;;;;;;;3.72;2.05;;;;;;;4.48;66.73;99960.50;4435879;31;20105;-70
2022/01/06 08:45:03;;;;;;;4.53;1.40;;;;;;;4.52;68.06;99971.00;4436236;32;20156;-71
2022/01/06 08:47:31;;;;;;;5.28;2.10;;;;;;;4.43;68.65;99964.84;4437775;32;20120;-71
2022/01/06 08:49:58;;;;;;;6.57;2.55;;;;;;;4.56;67.49;99971.88;4437658;32;20093;-70
2022/01/06 08:52:43;;;;;;;6.25;1.80;;;;;;;4.55;67.68;99970.13;4437603;32;20361;-71
2022/01/06 08:55:11;;;;;;;5.10;1.95;;;;;;;4.64;68.22;99967.56;4437684;32;20081;-71
2022/01/06 08:57:38;;;;;;;5.55;1.35;;;;;;;4.65;67.06;99974.53;4437439;32;20093;-71
2022/01/06 09:00:08;;;;;;;5.65;2.10;;;;;;;4.66;67.01;99971.03;4437506;32;20443;-71
2022/01/06 09:02:36;;;;;;;5.05;1.83;;;;;;;4.78;66.69;99976.34;4437311;32;20070;-71
2022/01/06 09:05:05;;;;;;;4.60;1.67;;;;;;;4.73;66.67;99966.72;4437474;31;20157;-70
2022/01/06 09:07:34;;;;;;;3.30;1.20;;;;;;;4.66;67.89;99980.63;4437395;32;20096;-72
2022/01/06 09:10:04;;;;;;;3.55;1.40;;;;;;;4.61;67.60;99983.22;4437610;32;20101;-71
2022/01/06 09:12:31;;;;;;;5.00;1.62;;;;;;;4.78;68.76;99978.09;4435536;31;20097;-71
2022/01/06 09:14:58;;;;;;;10.25;1.48;;;;;;;4.81;67.83;99975.50;4429979;32;20127;-71
2022/01/06 09:17:26;;;;;;;3.28;1.33;;;;;;;4.92;68.34;99980.75;4428878;32;20097;-71
2022/01/06 09:19:53;;;;;;;7.00;1.55;;;;;;;4.98;65.74;99983.38;4428757;32;20101;-71
2022/01/06 09:22:20;;;;;;;2.75;1.12;;;;;;;5.09;67.92;99981.72;4430053;32;20101;-70
2022/01/06 09:24:49;;;;;;;4.30;1.92;;;;;;;5.16;65.16;99986.09;4429201;32;20081;-70
2022/01/06 09:27:16;;;;;;;4.03;1.50;;;;;;;5.17;65.26;99979.13;4426246;32;20105;-71
2022/01/06 09:29:43;;;;;;;3.65;1.62;;;;;;;5.11;65.66;99984.31;4422015;32;20127;-71
2022/01/06 09:32:10;;;;;;;10.52;1.98;;;;;;;5.15;65.08;99986.06;4422053;32;20136;-71
2022/01/06 09:34:37;;;;;;;2.15;1.20;;;;;;;5.23;64.46;99980.03;4428272;32;20097;-70
2022/01/06 09:37:04;;;;;;;2.17;1.10;;;;;;;5.14;67.49;99974.75;4422756;31;20093;-71
2022/01/06 09:39:32;;;;;;;6.82;2.65;;;;;;;5.26;64.74;99971.28;4436505;31;20508;-71
2022/01/06 09:41:59;;;;;;;3.45;1.92;;;;;;;5.29;63.91;99984.38;4435621;31;20081;-70
2022/01/06 09:44:26;;;;;;;2.83;1.23;;;;;;;5.24;63.48;99986.09;4436641;32;20752;-71
2022/01/06 09:47:01;;;;;;;9.32;1.23;;;;;;;5.20;64.21;99981.75;4436646;32;20116;-71
2022/01/06 09:49:29;;;;;;;3.92;1.50;;;;;;;5.37;64.84;99979.16;4436540;32;20131;-71
2022/01/06 09:51:56;;;;;;;1.23;1.02;;;;;;;5.51;63.92;99980.97;4433778;31;20129;-71
2022/01/06 09:54:24;;;;;;;5.10;1.37;;;;;;;5.54;62.93;99984.44;4426426;31;20105;-71
2022/01/06 09:56:51;;;;;;;4.12;1.23;;;;;;;5.38;63.35;99976.56;4434985;32;20164;-71
2022/01/06 09:59:18;;;;;;;2.42;0.77;;;;;;;5.38;63.94;99987.03;4431946;31;20131;-71
2022/01/06 10:01:46;;;;;;;3.53;1.10;;;;;;;5.43;63.10;99989.62;4429183;32;20169;-71
2022/01/06 10:04:27;;;;;;;2.40;1.45;;;;;;;5.49;63.21;99992.28;4428314;32;20085;-71
2022/01/06 10:07:08;;;;;;;2.22;1.12;;;;;;;5.54;63.17;99994.88;4425723;32;20163;-71
2022/01/06 10:09:38;;;;;;;4.15;1.25;;;;;;;5.65;62.97;99996.66;4428440;32;20101;-70
2022/01/06 10:12:13;;;;;;;4.87;1.50;;;;;;;5.77;62.56;100011.50;4423985;31;20094;-71
2022/01/06 10:14:45;;;;;;;2.08;1.10;;;;;;;5.75;63.10;100011.47;4427733;32;20089;-71
2022/01/06 10:17:28;;;;;;;3.55;1.25;;;;;;;5.76;62.25;99999.31;4421864;32;20135;-70
2022/01/06 10:19:55;;;;;;;3.58;1.20;;;;;;;5.79;61.50;100009.75;4421031;32;20131;-71
2022/01/06 10:22:23;;;;;;;4.05;0.95;;;;;;;5.91;61.65;100015.00;4421402;32;20445;-70
2022/01/06 10:24:50;;;;;;;1.58;0.82;;;;;;;5.99;60.97;100012.44;4421135;32;20556;-70
2022/01/06 10:27:23;;;;;;;0.43;0.43;;;;;;;6.18;60.62;100026.38;4421232;32;20196;-71
2022/01/06 10:29:52;;;;;;;6.30;1.75;;;;;;;6.20;59.62;100025.50;4424813;32;20498;-71
2022/01/06 10:32:23;;;;;;;13.02;2.65;;;;;;;6.16;60.23;100026.38;4421939;32;20085;-71
2022/01/06 10:34:53;;;;;;;6.75;0.65;;;;;;;6.23;60.19;100025.50;4433192;32;20153;-70
2022/01/06 10:37:27;;;;;;;2.28;1.33;;;;;;;6.24;60.20;100023.75;4428584;32;20124;-70
2022/01/06 10:39:59;;;;;;;2.03;1.42;;;;;;;6.11;62.21;100033.37;4436163;32;20101;-71
2022/01/06 10:42:30;;;;;;;2.90;1.30;;;;;;;6.25;61.73;100035.09;4436269;32;20140;-71
2022/01/06 10:45:04;;;;;;;5.85;2.00;;;;;;;6.27;61.98;100034.22;4435012;32;20522;-71
2022/01/06 10:47:56;;;;;;;1.62;1.52;;;;;;;6.30;62.13;100036.84;4420612;32;20570;-74
2022/01/06 10:50:38;;;;;;;4.90;1.62;;;;;;;6.39;61.92;100028.97;4412150;32;20169;-70
2022/01/06 10:53:10;;;;;;;1.35;1.15;;;;;;;6.30;61.23;100026.38;4422786;32;20089;-71
2022/01/06 10:55:43;;;;;;;2.77;1.63;;;;;;;6.31;61.43;100017.66;4427139;32;20739;-70
2022/01/06 10:58:18;;;;;;;3.47;1.67;;;;;;;6.08;62.20;100032.47;4428720;32;20178;-71
2022/01/06 11:00:54;;;;;;;1.95;1.40;;;;;;;6.26;62.63;100031.62;4426972;32;20105;-72
2022/01/06 11:03:33;;;;;;;4.47;1.07;;;;;;;6.31;61.71;100027.25;4426783;32;20145;-71
2022/01/06 11:06:02;;;;;;;1.15;0.60;;;;;;;6.39;61.89;100033.34;4420538;32;20094;-71
2022/01/06 11:08:39;;;;;;;4.65;1.27;;;;;;;6.17;60.93;100038.59;4420288;32;20128;-72
2022/01/06 11:13:37;;;;;;;1.48;1.12;;;;;;;6.03;60.57;100050.78;4420133;32;20521;-71
2022/01/06 11:16:07;;;;;;;1.40;0.70;;;;;;;6.02;61.39;100049.03;4420633;32;20104;-71
2022/01/06 11:18:39;;;;;;;1.55;0.80;;;;;;;5.84;61.06;100043.75;4419923;32;20432;-72
2022/01/06 11:21:10;;;;;;;3.60;1.40;;;;;;;5.68;61.91;100053.28;4419261;32;20089;-72
2022/01/06 11:23:39;;;;;;;3.55;0.90;;;;;;;5.64;62.64;100052.41;4419140;32;20110;-71
2022/01/06 11:26:32;;;;;;;3.42;1.35;;;;;;;5.68;62.64;100059.38;4418973;32;20097;-71
2022/01/06 11:29:00;;;;;;;6.07;1.12;;;;;;;5.75;62.79;100060.28;4416101;32;20438;-72
2022/01/06 11:31:35;;;;;;;1.27;1.08;;;;;;;5.88;63.30;100061.19;4419170;32;20093;-71
2022/01/06 11:34:35;;;;;;;2.30;1.75;;;;;;;5.81;63.72;100062.91;4419081;32;20101;-71
2022/01/06 11:37:11;;;;;;;5.75;1.27;;;;;;;6.09;62.55;100068.25;4420544;32;20758;-70
2022/01/06 11:39:39;;;;;;;1.62;1.50;;;;;;;5.98;62.81;100069.09;4419778;32;20105;-69
2022/01/06 11:42:18;;;;;;;3.80;1.50;;;;;;;5.88;63.36;100058.59;4419849;32;20106;-70
2022/01/06 11:44:54;;;;;;;3.72;1.20;;;;;;;5.95;62.73;100056.00;4420516;32;20069;-70
2022/01/06 11:47:35;;;;;;;4.32;1.52;;;;;;;5.96;62.68;100059.50;4420303;32;20086;-70
2022/01/06 11:50:21;;;;;;;5.50;1.80;;;;;;;5.82;63.97;100055.94;4420196;32;20480;-71
2022/01/06 11:52:59;;;;;;;1.65;1.10;;;;;;;5.79;63.79;100061.16;4420485;32;20081;-70
2022/01/06 11:55:53;;;;;;;1.83;1.17;;;;;;;5.88;63.12;100051.59;4420124;32;20416;-72
2022/01/06 11:58:22;;;;;;;3.80;1.20;;;;;;;5.92;63.63;100060.31;4417097;32;20090;-70
2022/01/06 12:01:08;;;;;;;2.75;1.52;;;;;;;5.85;63.46;100066.41;4419766;32;20125;-70